createdAt,value
2018-05-07T00:00:55.153Z,3.8
2018-05-07T00:17:37.738Z,3.8
2018-05-07T00:34:20.233Z,3.8
2018-05-07T00:51:02.358Z,3.7
2018-05-07T01:07:43.962Z,3.7
2018-05-07T01:24:25.912Z,3.7
2018-05-07T01:41:07.412Z,3.7
2018-05-07T01:57:48.432Z,3.7
2018-05-07T02:14:29.441Z,3.7
2018-05-07T02:31:10.319Z,3.7
2018-05-07T02:47:50.749Z,3.7
2018-05-07T03:04:31.165Z,3.7
2018-05-07T03:21:11.503Z,3.7
2018-05-07T03:37:51.642Z,3.7
2018-05-07T03:54:31.989Z,3.7
2018-05-07T04:11:11.742Z,3.7
2018-05-07T04:27:52.131Z,3.7
2018-05-07T04:44:31.381Z,3.7
2018-05-07T05:01:12.682Z,3.7
2018-05-07T05:17:52.911Z,3.8
2018-05-07T05:31:13.828Z,3.8
2018-05-07T05:44:36.888Z,3.8
2018-05-07T05:57:56.828Z,3.9
2018-05-07T06:07:58.765Z,3.9
2018-05-07T06:21:21.039Z,3.9
2018-05-07T06:31:23.449Z,4.0
2018-05-07T06:44:46.634Z,4.0
2018-05-07T07:01:31.487Z,4.1
2018-05-07T07:18:16.513Z,4.1
2018-05-07T07:35:02.819Z,4.1
2018-05-07T07:51:47.945Z,4.0
2018-05-07T08:08:34.798Z,4.0
2018-05-07T08:18:38.646Z,4.0
2018-05-07T08:32:04.517Z,4.0
2018-05-07T08:48:51.545Z,4.0
2018-05-07T09:02:17.598Z,4.0
2018-05-07T09:15:44.133Z,4.0
2018-05-07T09:32:32.965Z,4.0
2018-05-07T09:49:21.891Z,4.0
2018-05-07T10:06:10.435Z,4.0
2018-05-07T10:22:59.255Z,4.0
2018-05-07T10:39:48.670Z,4.0
2018-05-07T10:56:38.443Z,4.0
2018-05-07T11:10:06.629Z,4.0
2018-05-07T11:26:56.327Z,4.0
2018-05-07T11:43:46.884Z,4.1
2018-05-07T12:00:37.644Z,4.1
2018-05-07T12:14:06.802Z,4.1
2018-05-07T12:30:56.904Z,4.1
2018-05-07T12:41:03.799Z,4.1
2018-05-07T12:57:55.477Z,4.1
2018-05-07T13:14:46.819Z,4.1
2018-05-07T13:31:38.623Z,4.1
2018-05-07T13:48:30.918Z,4.1
2018-05-07T14:05:23.030Z,4.1
2018-05-07T14:22:15.631Z,4.1
2018-05-07T14:39:07.002Z,4.1
2018-05-07T14:56:00.130Z,4.1
2018-05-07T15:12:51.643Z,4.1
2018-05-07T15:29:44.000Z,4.1
2018-05-07T15:46:36.312Z,4.1
2018-05-07T16:03:28.947Z,4.1
2018-05-07T16:20:22.499Z,4.2
2018-05-07T16:37:15.395Z,4.3
2018-05-07T16:47:24.085Z,4.3
2018-05-07T16:59:14.509Z,4.5
2018-05-07T17:16:11.362Z,4.6
2018-05-07T17:21:16.010Z,4.6
2018-05-07T17:26:20.645Z,4.4
2018-05-07T17:31:25.011Z,4.3
2018-05-07T17:36:29.024Z,4.1
2018-05-07T17:43:13.706Z,4.1
2018-05-07T17:53:20.749Z,4.0
2018-05-07T18:03:27.669Z,4.0
2018-05-07T18:13:33.786Z,4.0
2018-05-07T18:23:45.481Z,4.0
2018-05-07T18:33:45.204Z,4.0
2018-05-07T18:50:34.591Z,4.0
2018-05-07T19:00:39.624Z,4.0
2018-05-07T19:17:28.361Z,4.0
2018-05-07T19:27:32.305Z,4.0
2018-05-07T19:44:19.772Z,4.0
2018-05-07T19:57:45.227Z,3.9
2018-05-07T20:14:31.742Z,3.9
2018-05-07T20:31:17.864Z,3.9
2018-05-07T20:48:03.764Z,3.9
2018-05-07T21:04:49.499Z,3.9
2018-05-07T21:21:34.505Z,3.9
2018-05-07T21:38:19.734Z,3.9
2018-05-07T21:55:04.393Z,3.9
2018-05-07T22:11:50.755Z,3.8
2018-05-07T22:28:33.180Z,3.8
2018-05-07T22:45:17.485Z,3.8
2018-05-07T23:02:01.157Z,3.8
2018-05-07T23:18:44.740Z,3.8
2018-05-07T23:35:28.284Z,3.8
2018-05-07T23:52:12.115Z,3.8
